Terminal Aerodrome Forecast
Issued by NWS

Home | Current Version | Previous Version | Text Only | Print | Product List | Glossary On
Versions: 1 2 3 4 5 6 7 8 9 10 11 12 13 14 15 16 17 18 19 20 21
000
FTUS46 KOTX 310532
TAFMWH
TAF
KMWH 310532Z 3106/0106 34007KT P6SM BKN070 OVC100
     FM311200 03006KT P6SM VCSH BKN060 OVC080
     FM311700 22008KT P6SM -RA BKN050 BKN100
     FM010100 19005KT P6SM SCT050 BKN120=

USA.gov is the U.S. government's official web portal to all federal, state and local government web resources and services.